Time;durP1;ratioP1;P1;durP2;ratioP2;P2;SDS_P1;SDS_P2;PMS_P1;PMS_P2;Temp;Humidity;BMP_temperature;BMP_pressure;BME280_temperature;BME280_humidity;BME280_pressure;Samples;Min_cycle;Max_cycle;Signal;HPM_P1;HPM_P2
2023/08/14 00:01:07;;;;;;;9.48;1.77;;;19.10;99.90;;;;;;4948611;28;20497;-86
2023/08/14 00:03:33;;;;;;;8.70;2.03;;;19.00;99.90;;;;;;4950027;28;20027;-87
2023/08/14 00:05:59;;;;;;;9.57;1.88;;;19.00;99.90;;;;;;4951877;28;20031;-88
2023/08/14 00:08:25;;;;;;;6.90;1.83;;;19.00;99.90;;;;;;4951683;28;20122;-88
2023/08/14 00:10:50;;;;;;;8.93;1.77;;;18.90;99.90;;;;;;4951471;28;20476;-87
2023/08/14 00:13:21;;;;;;;6.15;1.70;;;18.90;99.90;;;;;;4950114;28;20046;-88
2023/08/14 00:15:48;;;;;;;4.30;1.73;;;18.80;99.90;;;;;;4953590;29;20544;-88
2023/08/14 00:18:13;;;;;;;10.98;2.10;;;18.80;99.90;;;;;;4950797;28;20054;-87
2023/08/14 00:20:39;;;;;;;5.22;1.95;;;;;;;;;;4952774;29;20467;-88
2023/08/14 00:23:05;;;;;;;6.43;1.77;;;18.80;99.90;;;;;;4951986;28;20031;-88
2023/08/14 00:25:30;;;;;;;4.35;1.70;;;18.80;99.90;;;;;;4952654;28;20031;-87
2023/08/14 00:27:56;;;;;;;5.10;1.90;;;18.80;99.90;;;;;;4951682;28;20406;-87
2023/08/14 00:30:22;;;;;;;8.45;2.38;;;18.80;99.90;;;;;;4951810;29;20055;-88
2023/08/14 00:32:48;;;;;;;10.25;2.25;;;18.80;99.90;;;;;;4953415;28;20118;-88
2023/08/14 00:35:14;;;;;;;5.40;1.80;;;18.80;99.90;;;;;;4952412;28;20094;-88
2023/08/14 00:37:48;;;;;;;6.80;2.05;;;18.80;99.90;;;;;;4952337;29;20098;-88
2023/08/14 00:40:15;;;;;;;6.72;1.65;;;18.80;99.90;;;;;;4951117;29;20035;-89
2023/08/14 00:42:43;;;;;;;12.13;2.43;;;15.20;99.90;;;;;;4951732;29;20522;-88
2023/08/14 00:45:09;;;;;;;7.13;1.90;;;18.80;99.90;;;;;;4952298;29;20290;-88
2023/08/14 00:47:36;;;;;;;5.53;1.75;;;18.80;99.90;;;;;;4952293;28;20070;-88
2023/08/14 00:50:04;;;;;;;7.68;1.88;;;18.70;99.90;;;;;;4952294;28;20023;-87
2023/08/14 00:52:31;;;;;;;;;;;18.80;99.90;;;;;;4952512;28;20024;-87
2023/08/14 00:55:01;;;;;;;6.70;1.70;;;18.80;99.90;;;;;;4949794;28;20330;-88
2023/08/14 00:57:29;;;;;;;8.57;1.80;;;18.70;99.90;;;;;;4950835;29;20122;-88
2023/08/14 00:59:56;;;;;;;6.65;1.70;;;18.70;99.90;;;;;;4932488;29;20087;-87
2023/08/14 01:02:23;;;;;;;13.07;1.90;;;18.80;99.90;;;;;;4946260;29;20575;-88
2023/08/14 01:04:49;;;;;;;9.10;1.80;;;18.80;99.90;;;;;;4951565;28;20035;-89
2023/08/14 01:07:15;;;;;;;8.25;1.70;;;18.80;99.90;;;;;;4951052;28;20114;-88
2023/08/14 01:09:40;;;;;;;5.97;2.10;;;18.80;99.90;;;;;;4950296;28;20042;-88
2023/08/14 01:12:06;;;;;;;6.47;1.77;;;;;;;;;;4950424;29;20038;-88
2023/08/14 01:14:33;;;;;;;7.88;1.90;;;18.90;99.90;;;;;;4950931;29;20031;-88
2023/08/14 01:17:03;;;;;;;7.38;1.70;;;18.90;99.90;;;;;;4932906;29;20388;-89
2023/08/14 01:19:39;;;;;;;5.70;2.00;;;18.90;99.90;;;;;;4939779;29;20035;-88
2023/08/14 01:22:24;;;;;;;7.88;1.77;;;18.90;99.90;;;;;;4949472;28;20035;-87
2023/08/14 01:24:59;;;;;;;6.93;1.67;;;18.90;99.90;;;;;;4933224;29;20031;-88
2023/08/14 01:27:26;;;;;;;5.60;1.70;;;18.90;99.90;;;;;;4939794;29;20034;-88
2023/08/14 01:29:59;;;;;;;9.23;2.08;;;18.90;99.90;;;;;;4951051;29;20031;-88
2023/08/14 01:32:26;;;;;;;5.13;1.80;;;18.90;99.90;;;;;;4951181;28;20035;-87
2023/08/14 01:34:53;;;;;;;5.18;1.60;;;18.90;99.90;;;;;;4952067;28;20027;-89
2023/08/14 01:37:45;;;;;;;8.15;1.90;;;18.80;99.90;;;;;;4951668;28;20047;-89
2023/08/14 01:40:18;;;;;;;7.45;1.95;;;18.80;99.90;;;;;;4951093;29;20500;-87
2023/08/14 01:42:46;;;;;;;5.03;1.63;;;18.70;99.90;;;;;;4951429;28;20424;-88
2023/08/14 01:45:19;;;;;;;7.47;1.80;;;18.70;99.90;;;;;;4950186;29;20114;-87
2023/08/14 01:47:48;;;;;;;5.40;1.60;;;18.70;99.90;;;;;;4951207;28;20086;-88
2023/08/14 01:50:15;;;;;;;8.23;2.47;;;18.70;99.90;;;;;;4950328;28;20058;-88
2023/08/14 01:52:40;;;;;;;6.15;1.90;;;18.70;99.90;;;;;;4950824;28;20054;-95
2023/08/14 01:55:06;;;;;;;6.63;2.00;;;18.70;99.90;;;;;;4951083;28;20032;-88
2023/08/14 01:57:33;;;;;;;8.15;2.05;;;18.60;99.90;;;;;;4951221;28;20392;-87
2023/08/14 01:59:59;;;;;;;6.63;1.80;;;18.70;99.90;;;;;;4951111;29;20028;-87
2023/08/14 02:02:25;;;;;;;8.02;1.67;;;;;;;;;;4952051;28;20030;-87
2023/08/14 02:04:50;;;;;;;6.45;2.00;;;18.60;99.90;;;;;;4951138;28;20027;-88
2023/08/14 02:07:16;;;;;;;8.15;1.70;;;18.50;99.90;;;;;;4950117;28;20030;-87
2023/08/14 02:09:42;;;;;;;4.97;2.05;;;;;;;;;;4950627;28;20035;-94
2023/08/14 02:12:09;;;;;;;6.88;2.20;;;18.50;99.90;;;;;;4948383;28;20027;-88
2023/08/14 02:14:34;;;;;;;6.18;2.00;;;18.40;99.90;;;;;;4949657;29;20039;-88
2023/08/14 02:17:00;;;;;;;5.82;1.90;;;18.40;99.90;;;;;;4952252;28;20135;-88
2023/08/14 02:19:26;;;;;;;14.10;1.98;;;18.40;99.90;;;;;;4955743;28;20102;-88
2023/08/14 02:21:51;;;;;;;5.35;1.65;;;18.40;99.90;;;;;;4953780;29;20110;-88
2023/08/14 02:24:17;;;;;;;4.80;1.65;;;18.40;99.90;;;;;;4953721;29;20387;-87
2023/08/14 02:26:43;;;;;;;7.78;1.80;;;18.40;99.90;;;;;;4953660;28;20024;-89
2023/08/14 02:29:09;;;;;;;5.88;1.50;;;;;;;;;;4954658;28;20543;-87
2023/08/14 02:31:35;;;;;;;4.15;1.75;;;;;;;;;;4954444;28;20110;-88
2023/08/14 02:34:01;;;;;;;5.03;1.45;;;18.30;99.90;;;;;;4954658;28;20054;-87
2023/08/14 02:36:28;;;;;;;5.53;1.95;;;18.30;99.90;;;;;;4955471;28;20038;-87
2023/08/14 02:38:55;;;;;;;5.32;1.52;;;18.30;99.90;;;;;;4955520;29;20029;-90
2023/08/14 02:41:21;;;;;;;3.67;1.52;;;18.20;99.90;;;;;;4960157;28;20038;-93
2023/08/14 02:43:47;;;;;;;6.15;1.48;;;18.20;99.90;;;;;;4966059;29;20380;-93
2023/08/14 02:46:12;;;;;;;6.82;1.73;;;18.20;99.90;;;;;;4955344;28;20030;-87
2023/08/14 02:48:38;;;;;;;4.55;1.80;;;18.20;99.90;;;;;;4954400;28;20081;-88
2023/08/14 02:51:04;;;;;;;6.65;1.70;;;18.10;99.90;;;;;;4954559;29;20069;-87
2023/08/14 02:53:30;;;;;;;7.45;1.80;;;18.10;99.90;;;;;;4953467;29;20047;-87
2023/08/14 02:55:56;;;;;;;6.47;1.85;;;;;;;;;;4956806;28;20024;-87
2023/08/14 02:58:22;;;;;;;8.77;1.80;;;18.00;99.90;;;;;;4940140;28;20047;-87
2023/08/14 03:00:48;;;;;;;3.17;1.50;;;18.00;99.90;;;;;;4935442;29;20024;-88
2023/08/14 03:03:15;;;;;;;6.53;2.13;;;18.00;99.90;;;;;;4952707;28;20058;-87
2023/08/14 03:05:41;;;;;;;9.18;1.60;;;18.00;99.90;;;;;;4953004;28;20027;-88
2023/08/14 03:08:06;;;;;;;7.55;1.60;;;18.00;99.90;;;;;;4952914;28;20035;-87
2023/08/14 03:10:32;;;;;;;7.70;2.25;;;18.00;99.90;;;;;;4954390;29;20030;-88
2023/08/14 03:12:59;;;;;;;4.78;1.60;;;18.00;99.90;;;;;;4953026;28;20047;-86
2023/08/14 03:15:24;;;;;;;6.60;1.95;;;18.00;99.90;;;;;;4947741;28;20078;-87
2023/08/14 03:17:50;;;;;;;7.05;1.58;;;18.00;99.90;;;;;;4949071;28;20031;-87
2023/08/14 03:20:15;;;;;;;4.47;1.80;;;17.90;99.90;;;;;;4953039;28;20023;-87
2023/08/14 03:22:41;;;;;;;8.95;1.70;;;17.90;99.90;;;;;;4953024;28;20058;-87
2023/08/14 03:25:07;;;;;;;6.88;1.55;;;17.90;99.90;;;;;;4952629;28;20023;-87
2023/08/14 03:27:33;;;;;;;5.68;1.90;;;17.90;99.90;;;;;;4953317;28;20439;-87
2023/08/14 03:29:59;;;;;;;7.00;1.77;;;17.90;99.90;;;;;;4952717;28;20024;-87
2023/08/14 03:32:24;;;;;;;9.60;2.75;;;17.90;99.90;;;;;;4951047;28;20535;-87
2023/08/14 03:34:51;;;;;;;10.88;1.63;;;17.90;99.90;;;;;;4968390;28;20023;-87
2023/08/14 03:37:16;;;;;;;7.18;1.75;;;17.80;99.90;;;;;;4944443;28;20031;-87
2023/08/14 03:39:42;;;;;;;5.30;1.90;;;17.80;99.90;;;;;;4934421;29;20024;-87
2023/08/14 03:42:08;;;;;;;5.10;1.60;;;;;;;;;;4934184;29;20032;-87
2023/08/14 03:44:34;;;;;;;12.82;2.00;;;17.80;99.90;;;;;;4934531;29;20035;-87
2023/08/14 03:46:59;;;;;;;4.47;2.17;;;17.80;99.90;;;;;;4935058;29;20032;-87
2023/08/14 03:49:25;;;;;;;5.75;1.70;;;;;;;;;;4948011;29;20031;-88
2023/08/14 03:51:51;;;;;;;3.35;1.45;;;17.80;99.90;;;;;;4951819;29;20036;-87
2023/08/14 03:54:16;;;;;;;9.25;2.38;;;17.80;99.90;;;;;;4953147;28;20090;-87
2023/08/14 03:56:42;;;;;;;4.78;2.03;;;17.70;99.90;;;;;;4953530;28;20023;-87
2023/08/14 03:59:08;;;;;;;5.68;1.70;;;17.70;99.90;;;;;;4953296;28;20082;-87
2023/08/14 04:01:36;;;;;;;7.03;1.92;;;17.70;99.90;;;;;;4953780;28;20034;-88
2023/08/14 04:04:02;;;;;;;4.82;1.90;;;;;;;;;;4953100;29;20122;-87
2023/08/14 04:06:28;;;;;;;5.07;1.80;;;;;;;;;;4952313;29;20023;-87
2023/08/14 04:08:54;;;;;;;7.18;2.53;;;;;;;;;;4953118;28;20252;-87
2023/08/14 04:11:20;;;;;;;7.53;1.70;;;17.70;99.90;;;;;;4952929;28;20459;-87
2023/08/14 04:13:45;;;;;;;9.82;2.22;;;17.70;99.90;;;;;;4951511;29;20052;-87
2023/08/14 04:16:11;;;;;;;4.55;1.80;;;17.80;99.90;;;;;;4951536;28;20439;-87
2023/08/14 04:18:36;;;;;;;6.57;1.85;;;17.70;99.90;;;;;;4952666;28;20023;-87
2023/08/14 04:21:03;;;;;;;9.30;1.80;;;17.80;99.90;;;;;;4953578;28;20027;-87
2023/08/14 04:23:30;;;;;;;5.43;1.77;;;;;;;;;;4950724;29;20031;-88
2023/08/14 04:25:56;;;;;;;6.38;1.80;;;17.70;99.90;;;;;;4952626;28;20027;-87
2023/08/14 04:28:22;;;;;;;6.50;1.90;;;17.70;99.90;;;;;;4951457;28;20031;-87
2023/08/14 04:30:48;;;;;;;18.45;2.40;;;17.70;99.90;;;;;;4952113;28;20023;-87
2023/08/14 04:33:13;;;;;;;9.80;2.38;;;17.70;99.90;;;;;;4951194;29;20479;-88
2023/08/14 04:35:40;;;;;;;4.97;1.90;;;;;;;;;;4952357;28;20106;-87
2023/08/14 04:38:06;;;;;;;10.00;2.45;;;17.70;99.90;;;;;;4952259;29;20423;-87
2023/08/14 04:40:32;;;;;;;6.30;2.22;;;;;;;;;;4952762;28;20495;-87
2023/08/14 04:42:57;;;;;;;7.40;2.13;;;17.70;99.90;;;;;;4949306;28;20035;-91
2023/08/14 04:45:23;;;;;;;7.93;2.58;;;17.70;99.90;;;;;;4952283;29;20023;-94
2023/08/14 04:47:49;;;;;;;7.72;2.33;;;;;;;;;;4953783;28;20038;-87
2023/08/14 04:50:14;;;;;;;6.72;2.00;;;17.70;99.90;;;;;;4951487;28;20043;-88
2023/08/14 04:52:40;;;;;;;6.45;2.03;;;17.60;99.90;;;;;;4950551;28;20075;-87
2023/08/14 04:55:06;;;;;;;6.57;1.80;;;17.60;99.90;;;;;;4952847;28;20035;-87
2023/08/14 04:57:32;;;;;;;7.53;2.33;;;17.70;99.90;;;;;;4951981;28;20027;-88
2023/08/14 04:59:58;;;;;;;5.07;1.95;;;17.70;99.90;;;;;;4951020;28;20086;-87
2023/08/14 05:02:23;;;;;;;5.55;2.67;;;17.70;99.90;;;;;;4951913;29;20100;-87
2023/08/14 05:04:49;;;;;;;9.85;2.08;;;17.70;99.90;;;;;;4949002;28;20058;-88
2023/08/14 05:07:15;;;;;;;5.70;2.30;;;17.80;99.90;;;;;;4950866;28;20458;-87
2023/08/14 05:09:40;;;;;;;6.07;2.05;;;17.70;99.90;;;;;;4951217;28;20027;-87
2023/08/14 05:12:06;;;;;;;5.93;1.90;;;17.80;99.90;;;;;;4951581;28;20031;-87
2023/08/14 05:14:34;;;;;;;7.82;2.28;;;;;;;;;;4949522;29;20028;-87
2023/08/14 05:17:00;;;;;;;6.70;2.13;;;17.80;99.90;;;;;;4950596;29;20035;-88
2023/08/14 05:19:25;;;;;;;6.55;2.10;;;17.80;99.90;;;;;;4950424;29;20047;-87
2023/08/14 05:21:51;;;;;;;4.40;1.73;;;17.90;99.90;;;;;;4951731;29;20023;-87
2023/08/14 05:24:17;;;;;;;9.30;2.58;;;17.90;99.90;;;;;;4952125;28;20091;-87
2023/08/14 05:26:42;;;;;;;5.50;1.98;;;17.90;99.90;;;;;;4950031;29;20031;-87
2023/08/14 05:29:08;;;;;;;4.63;2.33;;;17.90;99.90;;;;;;4952069;28;20424;-88
2023/08/14 05:31:34;;;;;;;6.20;2.45;;;18.00;99.90;;;;;;4950428;28;20078;-87
2023/08/14 05:34:00;;;;;;;9.73;2.30;;;18.00;99.90;;;;;;4952953;28;20138;-87
2023/08/14 05:36:25;;;;;;;10.07;2.00;;;18.00;99.90;;;;;;4947835;29;20503;-87
2023/08/14 05:38:54;;;;;;;4.88;2.00;;;18.00;99.90;;;;;;4958229;29;20079;-91
2023/08/14 05:41:24;;;;;;;10.68;2.38;;;18.00;99.90;;;;;;4966953;28;20074;-86
2023/08/14 05:43:50;;;;;;;6.93;2.05;;;;;;;;;;4953494;28;20051;-88
2023/08/14 05:46:18;;;;;;;9.90;2.45;;;;;;;;;;4957741;28;20118;-86
2023/08/14 05:48:44;;;;;;;6.25;2.10;;;18.10;99.90;;;;;;4934378;29;20038;-86
2023/08/14 05:51:10;;;;;;;6.55;1.98;;;;;;;;;;4932690;29;20031;-88
2023/08/14 05:53:36;;;;;;;8.13;2.17;;;18.10;99.90;;;;;;4939292;29;20043;-86
2023/08/14 05:56:01;;;;;;;6.40;2.20;;;18.10;99.90;;;;;;4953149;28;20438;-86
2023/08/14 05:58:27;;;;;;;7.47;2.00;;;18.60;99.90;;;;;;4960404;28;20443;-86
2023/08/14 06:00:53;;;;;;;11.40;2.25;;;;;;;;;;4957200;28;20039;-86
2023/08/14 06:03:18;;;;;;;6.93;2.10;;;18.20;99.90;;;;;;4953530;28;20035;-88
2023/08/14 06:05:44;;;;;;;4.47;1.90;;;;;;;;;;4951470;29;20038;-88
2023/08/14 06:08:10;;;;;;;10.82;2.28;;;18.20;99.90;;;;;;4956066;29;20023;-88
2023/08/14 06:10:38;;;;;;;6.57;2.03;;;;;;;;;;4953978;28;20415;-89
2023/08/14 06:13:07;;;;;;;9.35;2.10;;;18.40;99.90;;;;;;4952118;28;20038;-88
2023/08/14 06:15:34;;;;;;;6.50;2.03;;;18.40;99.90;;;;;;4959143;28;20125;-92
2023/08/14 06:18:01;;;;;;;6.95;2.13;;;;;;;;;;4957124;28;20357;-91
2023/08/14 06:20:27;;;;;;;10.60;1.95;;;;;;;;;;4953718;28;20026;-90
2023/08/14 06:22:52;;;;;;;6.10;1.90;;;18.40;99.90;;;;;;4951694;28;20031;-95
2023/08/14 06:25:18;;;;;;;9.95;2.42;;;;;;;;;;4958607;28;20438;-85
2023/08/14 06:27:44;;;;;;;7.30;1.70;;;18.50;99.90;;;;;;4946776;29;20495;-83
2023/08/14 06:30:11;;;;;;;7.43;1.70;;;18.50;99.90;;;;;;4935984;29;20040;-81
2023/08/14 06:32:37;;;;;;;7.53;2.28;;;18.50;99.90;;;;;;4939956;28;20051;-82
2023/08/14 06:35:04;;;;;;;8.15;1.90;;;18.60;99.90;;;;;;4944553;29;20034;-88
2023/08/14 06:37:30;;;;;;;6.78;1.80;;;18.60;99.90;;;;;;4940679;29;20031;-87
2023/08/14 06:39:55;;;;;;;6.55;2.10;;;18.70;99.90;;;;;;4949965;28;20049;-82
2023/08/14 06:42:21;;;;;;;5.75;2.05;;;18.80;99.90;;;;;;4940795;28;20031;-91
2023/08/14 06:44:46;;;;;;;5.13;1.50;;;18.80;99.90;;;;;;4949323;28;20027;-83
2023/08/14 06:47:12;;;;;;;7.43;1.90;;;19.00;99.90;;;;;;4951033;28;20034;-84
2023/08/14 06:49:38;;;;;;;5.18;2.15;;;19.00;99.90;;;;;;4951082;28;20059;-90
2023/08/14 06:52:04;;;;;;;4.93;1.98;;;19.10;99.90;;;;;;4962668;28;20035;-91
2023/08/14 06:54:30;;;;;;;7.72;2.17;;;19.00;99.90;;;;;;4949862;28;20130;-84
2023/08/14 06:56:55;;;;;;;8.18;1.88;;;19.10;99.90;;;;;;4947845;29;20021;-92
2023/08/14 06:59:21;;;;;;;5.05;1.63;;;19.20;99.90;;;;;;4949671;28;20031;-90
2023/08/14 07:01:47;;;;;;;7.80;2.13;;;19.30;99.90;;;;;;4949283;28;20042;-91
2023/08/14 07:04:12;;;;;;;6.05;1.88;;;19.20;99.90;;;;;;4944824;28;20110;-84
2023/08/14 07:06:38;;;;;;;6.32;1.60;;;19.30;99.90;;;;;;4949297;28;20019;-91
2023/08/14 07:09:04;;;;;;;9.50;2.28;;;19.40;99.90;;;;;;4953877;28;20035;-92
2023/08/14 07:11:36;;;;;;;8.27;1.80;;;19.40;99.90;;;;;;4949009;28;20034;-92
2023/08/14 07:14:02;;;;;;;7.13;1.67;;;19.60;99.90;;;;;;4947806;28;20035;-90
2023/08/14 07:16:28;;;;;;;5.88;1.80;;;19.60;99.90;;;;;;4947958;29;20396;-83
2023/08/14 07:18:54;;;;;;;7.75;1.60;;;19.60;99.90;;;;;;4945488;28;20766;-88
2023/08/14 07:21:19;;;;;;;5.55;1.40;;;19.70;99.90;;;;;;4942382;29;20028;-84
2023/08/14 07:23:45;;;;;;;11.25;2.10;;;19.70;99.90;;;;;;4950228;28;20519;-84
2023/08/14 07:26:13;;;;;;;7.38;1.55;;;19.70;99.90;;;;;;4954427;28;20023;-85
2023/08/14 07:28:39;;;;;;;9.75;1.70;;;19.80;99.90;;;;;;4952789;28;20399;-84
2023/08/14 07:31:05;;;;;;;8.15;1.90;;;19.80;99.90;;;;;;4952369;28;20115;-88
2023/08/14 07:33:31;;;;;;;5.38;1.65;;;19.90;99.90;;;;;;4952086;29;20043;-84
2023/08/14 07:35:58;;;;;;;8.07;2.20;;;20.00;99.90;;;;;;4953048;29;20039;-84
2023/08/14 07:38:25;;;;;;;5.72;1.70;;;20.00;99.90;;;;;;4952080;29;20082;-85
2023/08/14 07:40:52;;;;;;;7.47;1.75;;;20.10;99.90;;;;;;4952615;28;20058;-85
2023/08/14 07:43:17;;;;;;;10.45;2.20;;;20.10;99.90;;;;;;4953351;29;20058;-84
2023/08/14 07:45:43;;;;;;;5.22;1.77;;;20.10;99.90;;;;;;4952133;28;20062;-84
2023/08/14 07:48:09;;;;;;;6.68;1.98;;;20.20;99.90;;;;;;4952022;28;20035;-88
2023/08/14 07:50:35;;;;;;;10.02;1.75;;;20.20;99.90;;;;;;4940935;28;20032;-91
2023/08/14 07:53:01;;;;;;;8.15;1.65;;;20.20;99.90;;;;;;4952641;28;20043;-91
2023/08/14 07:55:26;;;;;;;6.38;1.77;;;20.30;99.90;;;;;;4953555;28;20042;-83
2023/08/14 07:57:52;;;;;;;9.52;2.10;;;20.30;99.90;;;;;;4934529;29;20030;-92
2023/08/14 08:00:18;;;;;;;10.82;1.92;;;20.40;99.90;;;;;;4940939;28;20191;-85
2023/08/14 08:02:44;;;;;;;7.80;1.70;;;20.30;99.90;;;;;;4953594;28;20031;-82
2023/08/14 08:05:09;;;;;;;10.05;2.00;;;20.40;99.90;;;;;;4951639;28;20047;-82
2023/08/14 08:07:35;;;;;;;6.18;1.80;;;20.30;99.90;;;;;;4951385;28;20259;-82
2023/08/14 08:10:01;;;;;;;6.65;1.80;;;20.50;99.90;;;;;;4953007;29;20035;-82
2023/08/14 08:12:27;;;;;;;5.00;1.73;;;20.50;99.90;;;;;;4951628;29;20384;-82
2023/08/14 08:14:53;;;;;;;7.75;1.92;;;20.50;99.90;;;;;;4952232;28;20059;-82
2023/08/14 08:17:18;;;;;;;10.45;2.42;;;20.50;99.90;;;;;;4952849;28;20027;-83
2023/08/14 08:19:46;;;;;;;8.48;1.90;;;20.50;99.90;;;;;;4953704;29;20107;-82
2023/08/14 08:22:12;;;;;;;8.35;2.03;;;20.70;99.90;;;;;;4952153;28;20070;-82
2023/08/14 08:24:37;;;;;;;7.43;1.77;;;20.90;99.90;;;;;;4951142;28;20074;-82
2023/08/14 08:27:03;;;;;;;9.05;2.20;;;21.10;99.90;;;;;;4952695;29;20023;-82
2023/08/14 08:29:29;;;;;;;8.48;2.20;;;21.20;99.90;;;;;;4952636;29;20031;-82
2023/08/14 08:31:55;;;;;;;9.70;2.25;;;21.30;99.90;;;;;;4951299;29;20428;-82
2023/08/14 08:34:21;;;;;;;7.45;2.00;;;21.40;99.90;;;;;;4952442;29;20039;-82
2023/08/14 08:36:47;;;;;;;11.52;2.10;;;21.60;99.90;;;;;;4952074;29;20075;-83
2023/08/14 08:39:12;;;;;;;8.77;2.42;;;21.70;99.90;;;;;;4953015;29;20368;-83
2023/08/14 08:41:40;;;;;;;10.18;2.10;;;22.00;99.90;;;;;;4952346;29;20106;-83
2023/08/14 08:44:11;;;;;;;10.68;2.13;;;22.10;99.90;;;;;;4952449;28;20023;-83
2023/08/14 08:46:42;;;;;;;13.50;2.65;;;22.20;99.90;;;;;;4952275;28;20042;-82
2023/08/14 08:49:08;;;;;;;5.78;2.05;;;22.20;99.90;;;;;;4952274;29;20482;-83
2023/08/14 08:51:34;;;;;;;9.30;2.25;;;22.20;99.90;;;;;;4952267;28;20376;-83
2023/08/14 08:54:01;;;;;;;8.10;2.10;;;22.20;99.90;;;;;;4950951;28;20125;-82
2023/08/14 08:56:27;;;;;;;9.07;2.33;;;22.20;99.90;;;;;;4951039;28;20035;-82
2023/08/14 08:58:53;;;;;;;6.85;2.30;;;21.90;99.90;;;;;;4952101;28;20039;-88
2023/08/14 09:01:20;;;;;;;5.85;2.20;;;22.10;99.90;;;;;;4952470;28;20034;-82
2023/08/14 09:03:47;;;;;;;9.00;2.17;;;22.20;99.90;;;;;;4952824;28;20020;-83
2023/08/14 09:06:13;;;;;;;9.30;2.37;;;22.20;99.90;;;;;;4951848;29;20031;-88
2023/08/14 09:08:38;;;;;;;13.32;2.20;;;22.10;99.90;;;;;;4951969;28;20248;-83
2023/08/14 09:11:04;;;;;;;9.38;2.30;;;22.10;99.90;;;;;;4951862;29;20035;-82
2023/08/14 09:13:29;;;;;;;8.93;1.95;;;22.10;99.90;;;;;;4950678;28;20068;-82
2023/08/14 09:15:55;;;;;;;10.55;2.65;;;22.00;99.90;;;;;;4950602;29;20034;-86
2023/08/14 09:18:21;;;;;;;13.27;2.42;;;22.10;99.90;;;;;;4951172;29;20168;-82
2023/08/14 09:20:46;;;;;;;12.00;2.40;;;22.10;99.90;;;;;;4951444;28;20032;-82
2023/08/14 09:23:12;;;;;;;7.93;2.00;;;22.10;99.90;;;;;;4951352;28;20032;-84
2023/08/14 09:25:45;;;;;;;11.15;2.47;;;22.00;99.90;;;;;;4950908;28;20023;-83
2023/08/14 09:28:11;;;;;;;11.27;2.38;;;22.10;99.90;;;;;;4948530;28;20035;-83
2023/08/14 09:30:38;;;;;;;9.35;2.60;;;22.10;99.90;;;;;;4949376;29;20031;-84
2023/08/14 09:33:11;;;;;;;13.20;2.88;;;22.10;99.90;;;;;;4950483;29;20043;-84
2023/08/14 09:35:38;;;;;;;8.88;2.17;;;22.20;99.90;;;;;;4935738;28;20023;-86
2023/08/14 09:38:04;;;;;;;10.50;2.55;;;22.20;99.90;;;;;;4942915;29;20041;-84
2023/08/14 09:40:31;;;;;;;8.88;2.22;;;22.20;99.90;;;;;;4930969;29;20110;-84
2023/08/14 09:42:57;;;;;;;12.27;2.78;;;22.20;99.90;;;;;;4935129;28;20023;-84
2023/08/14 09:45:24;;;;;;;9.55;2.08;;;22.40;99.90;;;;;;4948884;28;20055;-84
2023/08/14 09:47:51;;;;;;;12.68;2.63;;;22.50;99.90;;;;;;4952234;28;20023;-84
2023/08/14 09:50:19;;;;;;;15.15;2.70;;;22.70;99.90;;;;;;4949488;28;20031;-85
2023/08/14 09:52:45;;;;;;;15.63;2.95;;;22.80;99.90;;;;;;4948635;28;20043;-90
2023/08/14 09:55:15;;;;;;;12.10;2.38;;;22.90;99.90;;;;;;4948559;28;20555;-85
2023/08/14 09:57:41;;;;;;;12.25;2.70;;;22.70;99.90;;;;;;4948801;28;20027;-89
2023/08/14 10:00:08;;;;;;;11.88;2.90;;;22.60;99.90;;;;;;4952904;28;20494;-88
2023/08/14 10:02:37;;;;;;;10.18;2.40;;;22.80;99.90;;;;;;4944179;29;20039;-88
2023/08/14 10:05:09;;;;;;;15.00;2.90;;;22.80;99.90;;;;;;4949611;28;20030;-90
2023/08/14 10:07:34;;;;;;;13.65;2.85;;;22.90;99.90;;;;;;4949488;29;20035;-90
2023/08/14 10:10:03;;;;;;;11.20;2.35;;;22.90;99.90;;;;;;4951389;28;20027;-88
2023/08/14 10:12:32;;;;;;;10.45;3.00;;;22.90;99.90;;;;;;4950572;28;20034;-87
2023/08/14 10:15:05;;;;;;;13.93;2.53;;;22.70;99.90;;;;;;4951484;28;20517;-84
2023/08/14 10:17:34;;;;;;;8.05;2.28;;;22.60;99.90;;;;;;4951256;29;20518;-84
2023/08/14 10:20:04;;;;;;;8.35;2.03;;;22.70;99.90;;;;;;4946560;28;20406;-84
2023/08/14 10:22:33;;;;;;;8.82;3.00;;;22.80;99.90;;;;;;4950498;29;20082;-84
2023/08/14 10:25:03;;;;;;;14.82;2.67;;;22.90;99.90;;;;;;4951192;28;20026;-83
2023/08/14 10:27:29;;;;;;;11.65;2.90;;;22.90;99.90;;;;;;4950439;28;20110;-82
2023/08/14 10:29:55;;;;;;;10.25;2.65;;;23.00;99.90;;;;;;4949904;29;20023;-82
2023/08/14 10:32:22;;;;;;;9.90;2.25;;;23.10;99.90;;;;;;4951710;29;20110;-84
2023/08/14 10:34:48;;;;;;;6.25;1.80;;;23.10;99.90;;;;;;4950805;29;20086;-83
2023/08/14 10:37:26;;;;;;;15.65;2.90;;;23.00;99.90;;;;;;4944574;28;20028;-83
2023/08/14 10:39:51;;;;;;;9.10;2.00;;;23.10;99.90;;;;;;4953946;29;20388;-85
2023/08/14 10:42:17;;;;;;;6.22;2.30;;;23.10;99.90;;;;;;4952564;29;20118;-85
2023/08/14 10:44:43;;;;;;;11.93;2.40;;;23.30;99.90;;;;;;4950348;28;20035;-84
2023/08/14 10:47:12;;;;;;;8.63;2.25;;;23.40;99.90;;;;;;4954605;28;20020;-85
2023/08/14 10:49:49;;;;;;;10.25;2.45;;;23.40;99.90;;;;;;4954113;28;20027;-85
2023/08/14 10:52:17;;;;;;;10.63;2.30;;;23.60;99.90;;;;;;4953744;29;20027;-84
2023/08/14 10:54:51;;;;;;;7.38;2.22;;;25.50;99.90;;;;;;4953867;28;20066;-84
2023/08/14 10:57:17;;;;;;;8.35;2.05;;;23.60;99.90;;;;;;4953684;28;20042;-84
2023/08/14 10:59:57;;;;;;;12.20;2.55;;;23.50;99.90;;;;;;4953357;28;20031;-85
2023/08/14 11:02:25;;;;;;;6.00;1.92;;;23.60;99.90;;;;;;4951194;28;20838;-84
2023/08/14 11:04:59;;;;;;;10.23;2.20;;;23.60;99.90;;;;;;4952740;29;20023;-85
2023/08/14 11:07:29;;;;;;;8.25;2.45;;;23.60;99.90;;;;;;4953039;29;20054;-85
2023/08/14 11:09:59;;;;;;;9.07;2.10;;;23.60;99.90;;;;;;4953859;28;20065;-83
2023/08/14 11:12:26;;;;;;;15.13;2.53;;;23.70;99.90;;;;;;4954464;28;20054;-84
2023/08/14 11:14:54;;;;;;;7.55;2.03;;;23.80;99.90;;;;;;4953064;28;20031;-83
2023/08/14 11:17:22;;;;;;;8.88;1.95;;;23.80;99.90;;;;;;4952714;28;20031;-83
2023/08/14 11:19:49;;;;;;;;;;;23.80;99.90;;;;;;4953937;28;20035;-83
2023/08/14 11:22:14;;;;;;;8.32;2.65;;;23.90;99.90;;;;;;4953158;29;19917;-84
2023/08/14 11:24:41;;;;;;;13.77;2.67;;;24.00;99.90;;;;;;4953203;28;20035;-84
2023/08/14 11:27:07;;;;;;;8.70;2.08;;;23.90;99.90;;;;;;4950037;28;20031;-83
2023/08/14 11:29:35;;;;;;;7.32;2.22;;;24.00;99.90;;;;;;4953076;29;20034;-84
2023/08/14 11:32:01;;;;;;;14.00;2.17;;;24.20;99.90;;;;;;4953117;28;20027;-83
2023/08/14 11:34:27;;;;;;;8.40;2.42;;;24.40;99.90;;;;;;4952846;28;20106;-84
2023/08/14 11:37:04;;;;;;;9.85;2.38;;;24.50;99.90;;;;;;4953329;29;20391;-83
2023/08/14 11:39:31;;;;;;;9.73;2.40;;;24.50;99.90;;;;;;4953157;28;20106;-84
2023/08/14 11:41:57;;;;;;;8.52;3.28;;;24.60;99.90;;;;;;4953983;28;20173;-84
2023/08/14 11:44:22;;;;;;;12.73;2.38;;;24.60;99.90;;;;;;4952788;28;20110;-84
2023/08/14 11:46:48;;;;;;;9.35;2.58;;;24.50;99.90;;;;;;4952512;28;20114;-87
2023/08/14 11:49:16;;;;;;;8.55;2.83;;;24.70;99.90;;;;;;4951584;28;20032;-85
2023/08/14 11:51:42;;;;;;;7.30;2.08;;;24.60;99.90;;;;;;4952839;28;20487;-87
2023/08/14 11:54:09;;;;;;;7.75;2.30;;;24.60;99.90;;;;;;4951388;29;20507;-86
2023/08/14 11:56:35;;;;;;;7.03;2.03;;;24.70;99.90;;;;;;4952870;28;20038;-86
2023/08/14 11:59:01;;;;;;;7.05;2.13;;;24.70;99.90;;;;;;4952328;28;20046;-86
2023/08/14 12:01:27;;;;;;;6.13;2.25;;;24.70;99.90;;;;;;4950409;28;20037;-86
2023/08/14 12:03:52;;;;;;;6.13;2.03;;;24.60;99.90;;;;;;4952418;28;20031;-86
2023/08/14 12:06:18;;;;;;;8.05;1.92;;;24.70;99.90;;;;;;4952029;28;20042;-85
2023/08/14 12:08:44;;;;;;;5.90;2.10;;;24.70;99.90;;;;;;4952775;29;20500;-90
2023/08/14 12:11:16;;;;;;;7.50;2.15;;;24.70;99.90;;;;;;4949898;28;20118;-87
2023/08/14 12:13:51;;;;;;;14.05;2.28;;;24.70;99.90;;;;;;4948598;29;20508;-83
2023/08/14 12:16:17;;;;;;;8.90;2.38;;;24.70;99.90;;;;;;4935774;29;20456;-83
2023/08/14 12:18:45;;;;;;;7.28;1.90;;;24.80;99.90;;;;;;4945323;28;20112;-82
2023/08/14 12:21:12;;;;;;;10.60;2.22;;;24.90;99.90;;;;;;4952629;28;20046;-83
2023/08/14 12:23:46;;;;;;;6.78;2.08;;;24.90;99.90;;;;;;4949396;28;20038;-85
2023/08/14 12:26:12;;;;;;;8.88;2.50;;;24.90;99.90;;;;;;4951318;28;20099;-82
2023/08/14 12:28:39;;;;;;;8.88;2.25;;;24.90;99.90;;;;;;4950489;28;20039;-81
2023/08/14 12:31:05;;;;;;;9.18;2.40;;;24.90;99.90;;;;;;4951568;29;20039;-82
2023/08/14 12:33:30;;;;;;;7.53;2.17;;;24.90;99.90;;;;;;4951004;29;20046;-83
2023/08/14 12:35:56;;;;;;;8.70;2.10;;;25.00;99.90;;;;;;4952342;28;20031;-83
2023/08/14 12:38:22;;;;;;;7.45;1.90;;;25.10;99.90;;;;;;4951730;28;20050;-83
2023/08/14 12:40:48;;;;;;;10.63;2.40;;;25.10;99.90;;;;;;4952050;28;20391;-83
2023/08/14 12:43:13;;;;;;;7.15;1.90;;;25.10;99.90;;;;;;4952101;28;20520;-83
2023/08/14 12:45:39;;;;;;;8.60;2.25;;;25.00;99.90;;;;;;4951866;29;20554;-84
2023/08/14 12:48:05;;;;;;;13.40;2.20;;;25.00;99.90;;;;;;4949386;29;20066;-82
2023/08/14 12:50:31;;;;;;;10.55;2.20;;;25.00;99.90;;;;;;4951645;28;20135;-83